Time;durP1;ratioP1;P1;durP2;ratioP2;P2;SDS_P1;SDS_P2;PMS_P1;PMS_P2;Temp;Humidity;BMP_temperature;BMP_pressure;BME280_temperature;BME280_humidity;BME280_pressure;Samples;Min_cycle;Max_cycle;Signal;HPM_P1;HPM_P2
2023/05/24 00:01:30;;;;;;;14.13;3.30;;;11.00;99.90;;;;;;5090846;28;20201;-84
2023/05/24 00:03:59;;;;;;;15.10;3.10;;;11.00;99.90;;;;;;5086387;28;20179;-79
2023/05/24 00:06:26;;;;;;;10.83;2.33;;;10.90;99.90;;;;;;5107332;28;20172;-80
2023/05/24 00:08:52;;;;;;;8.27;3.13;;;10.90;99.90;;;;;;5073657;28;20415;-82
2023/05/24 00:11:18;;;;;;;10.40;2.57;;;10.90;99.90;;;;;;5085002;28;20443;-83
2023/05/24 00:13:43;;;;;;;15.00;3.40;;;10.80;99.90;;;;;;5097324;28;20453;-81
2023/05/24 00:16:11;;;;;;;11.20;3.47;;;10.80;99.90;;;;;;5104442;28;20442;-85
2023/05/24 00:18:40;;;;;;;12.03;3.17;;;10.80;99.90;;;;;;5105506;28;20200;-82
2023/05/24 00:21:07;;;;;;;8.87;3.07;;;10.70;99.90;;;;;;5096977;28;20556;-83
2023/05/24 00:23:33;;;;;;;9.13;2.70;;;10.70;99.90;;;;;;5100395;28;20419;-82
2023/05/24 00:26:00;;;;;;;14.17;3.50;;;10.70;99.90;;;;;;5073015;28;20462;-84
2023/05/24 00:28:26;;;;;;;14.53;3.00;;;10.60;99.90;;;;;;5087661;28;20422;-84
2023/05/24 00:30:52;;;;;;;6.83;2.87;;;10.60;99.90;;;;;;5099869;28;20437;-82
2023/05/24 00:33:17;;;;;;;6.40;2.33;;;10.60;99.90;;;;;;5089858;28;20426;-83
2023/05/24 00:35:43;;;;;;;8.77;3.10;;;10.50;99.90;;;;;;5087590;28;20196;-81
2023/05/24 00:38:08;;;;;;;9.07;3.93;;;10.50;99.90;;;;;;5107547;28;20738;-83
2023/05/24 00:40:34;;;;;;;11.73;3.10;;;10.50;99.90;;;;;;5084234;28;20177;-84
2023/05/24 00:42:59;;;;;;;14.20;5.07;;;10.40;99.90;;;;;;5106213;28;20184;-82
2023/05/24 00:45:25;;;;;;;14.53;3.60;;;10.40;99.90;;;;;;5075281;28;20208;-83
2023/05/24 00:47:51;;;;;;;7.60;3.40;;;10.30;99.90;;;;;;5097814;28;20191;-84
2023/05/24 00:50:17;;;;;;;6.17;2.43;;;10.30;99.90;;;;;;5107068;28;20207;-83
2023/05/24 00:52:42;;;;;;;15.60;4.37;;;10.30;99.90;;;;;;5087266;28;20176;-81
2023/05/24 00:55:08;;;;;;;14.20;3.40;;;10.20;99.90;;;;;;5097349;28;20488;-83
2023/05/24 00:57:35;;;;;;;10.90;3.43;;;10.20;99.90;;;;;;5103912;28;20181;-82
2023/05/24 01:00:03;;;;;;;13.43;3.10;;;10.20;99.90;;;;;;5092672;28;20427;-83
2023/05/24 01:02:29;;;;;;;10.00;2.80;;;10.10;99.90;;;;;;5085280;28;20450;-83
2023/05/24 01:04:55;;;;;;;10.00;3.10;;;10.10;99.90;;;;;;5105264;28;20533;-82
2023/05/24 01:07:52;;;;;;;9.77;3.00;;;10.10;99.90;;;;;;5098174;28;20441;-83
2023/05/24 01:10:30;;;;;;;10.05;3.22;;;10.00;99.90;;;;;;5067943;28;20203;-83
2023/05/24 01:12:56;;;;;;;14.05;3.35;;;10.00;99.90;;;;;;5101077;28;20190;-83
2023/05/24 01:16:02;;;;;;;14.03;3.90;;;10.00;99.90;;;;;;5106332;28;20196;-82
2023/05/24 01:18:32;;;;;;;9.20;3.03;;;9.90;99.90;;;;;;5072193;28;20217;-81
2023/05/24 01:21:29;;;;;;;8.10;3.00;;;9.90;99.90;;;;;;5104770;28;20437;-85
2023/05/24 01:24:13;;;;;;;11.52;3.55;;;9.90;99.90;;;;;;5104022;28;20430;-82
2023/05/24 01:27:03;;;;;;;16.45;3.03;;;9.80;99.90;;;;;;5098345;28;20177;-81
2023/05/24 01:29:31;;;;;;;17.35;3.20;;;9.80;99.90;;;;;;5102193;28;20176;-83
2023/05/24 01:31:57;;;;;;;11.53;3.40;;;9.80;99.90;;;;;;5096915;28;20193;-82
2023/05/24 01:34:24;;;;;;;9.10;3.20;;;9.80;99.90;;;;;;5095212;28;20465;-83
2023/05/24 01:36:50;;;;;;;13.77;3.10;;;9.80;99.90;;;;;;5103314;28;20196;-83
2023/05/24 01:39:16;;;;;;;13.23;3.50;;;9.70;99.90;;;;;;5109883;28;20472;-82
2023/05/24 01:42:24;;;;;;;9.13;3.60;;;9.70;99.90;;;;;;5101500;28;20172;-83
2023/05/24 01:45:40;;;;;;;9.65;3.55;;;9.70;99.90;;;;;;5067803;28;20831;-82
2023/05/24 01:48:30;;;;;;;13.07;3.80;;;9.70;99.90;;;;;;5062249;28;20624;-82
2023/05/24 01:51:04;;;;;;;12.27;3.57;;;9.70;99.90;;;;;;5106140;28;20222;-80
2023/05/24 01:53:34;;;;;;;13.50;4.30;;;9.70;99.90;;;;;;5097111;28;20430;-81
2023/05/24 01:56:02;;;;;;;12.75;3.20;;;9.70;99.90;;;;;;5100257;28;20615;-83
2023/05/24 01:58:29;;;;;;;13.30;3.30;;;9.60;1.00;;;;;;5108495;28;20204;-82
2023/05/24 02:00:56;;;;;;;9.02;3.17;;;9.70;1.00;;;;;;5106261;28;20180;-81
2023/05/24 02:03:21;;;;;;;10.00;3.60;;;9.60;1.00;;;;;;5100164;28;20184;-83
2023/05/24 02:05:47;;;;;;;10.73;2.80;;;9.60;1.00;;;;;;5108532;28;20184;-82
2023/05/24 02:08:13;;;;;;;9.20;2.80;;;9.60;1.00;;;;;;5098864;28;20244;-81
2023/05/24 02:10:39;;;;;;;13.57;3.60;;;9.60;1.00;;;;;;5106848;28;20444;-82
2023/05/24 02:13:06;;;;;;;9.88;3.95;;;9.60;1.00;;;;;;5090345;28;20184;-82
2023/05/24 02:15:32;;;;;;;13.60;3.15;;;9.60;1.00;;;;;;5085125;28;20602;-83
2023/05/24 02:17:59;;;;;;;11.97;3.63;;;9.60;1.00;;;;;;5097620;28;20279;-84
2023/05/24 02:20:25;;;;;;;12.40;4.10;;;9.60;1.00;;;;;;5106274;28;20469;-82
2023/05/24 02:22:51;;;;;;;8.17;2.80;;;9.50;1.00;;;;;;5091606;28;20172;-83
2023/05/24 02:25:16;;;;;;;10.30;3.43;;;9.50;1.00;;;;;;5082698;28;20208;-85
2023/05/24 02:27:45;;;;;;;8.20;3.80;;;9.50;1.00;;;;;;5103940;28;20592;-82
2023/05/24 02:30:11;;;;;;;11.73;3.10;;;9.50;1.00;;;;;;5097324;28;20252;-83
2023/05/24 02:32:37;;;;;;;8.00;3.15;;;9.40;1.00;;;;;;5094427;28;20180;-81
2023/05/24 02:35:03;;;;;;;10.47;3.20;;;9.40;1.00;;;;;;5109290;28;20211;-83
2023/05/24 02:37:28;;;;;;;8.67;3.77;;;9.30;1.00;;;;;;5107768;28;20275;-83
2023/05/24 02:39:54;;;;;;;19.70;3.87;;;9.30;1.00;;;;;;5104492;28;20233;-81
2023/05/24 02:42:20;;;;;;;11.83;3.40;;;9.30;1.00;;;;;;5080470;28;20233;-83
2023/05/24 02:44:47;;;;;;;13.60;3.30;;;9.20;1.00;;;;;;5091863;28;20209;-84
2023/05/24 02:47:13;;;;;;;16.05;4.22;;;9.20;1.00;;;;;;5080203;28;20193;-82
2023/05/24 02:49:39;;;;;;;9.13;3.67;;;9.10;1.00;;;;;;5105629;28;20200;-79
2023/05/24 02:52:05;;;;;;;13.10;3.87;;;9.10;1.00;;;;;;5079809;28;20454;-82
2023/05/24 02:54:30;;;;;;;10.50;3.40;;;9.10;1.00;;;;;;5086686;28;20603;-83
2023/05/24 02:56:56;;;;;;;10.40;3.87;;;9.10;1.00;;;;;;5081967;28;20438;-82
2023/05/24 02:59:23;;;;;;;12.90;3.70;;;9.10;1.00;;;;;;5097571;28;20299;-81
2023/05/24 03:01:48;;;;;;;12.52;4.20;;;9.00;1.00;;;;;;5103820;28;20179;-83
2023/05/24 03:04:14;;;;;;;13.20;3.87;;;9.00;1.00;;;;;;5096257;28;20201;-82
2023/05/24 03:06:39;;;;;;;10.73;3.50;;;9.00;1.00;;;;;;5076542;28;20180;-81
2023/05/24 03:09:05;;;;;;;9.60;4.57;;;8.90;1.00;;;;;;5107307;28;20181;-82
2023/05/24 03:11:31;;;;;;;15.13;3.77;;;8.90;1.00;;;;;;5088579;28;20192;-81
2023/05/24 03:13:56;;;;;;;9.50;3.63;;;8.90;1.00;;;;;;5098368;28;20470;-82
2023/05/24 03:16:22;;;;;;;9.80;3.97;;;8.80;1.00;;;;;;5102674;28;20202;-82
2023/05/24 03:18:49;;;;;;;13.20;4.80;;;8.80;1.00;;;;;;5099137;28;20280;-82
2023/05/24 03:21:16;;;;;;;9.70;4.57;;;8.80;1.00;;;;;;5096127;28;20191;-82
2023/05/24 03:23:41;;;;;;;9.18;3.58;;;8.70;1.00;;;;;;5109895;28;20201;-82
2023/05/24 03:26:07;;;;;;;14.53;4.00;;;8.70;4.00;;;;;;5109553;28;20252;-82
2023/05/24 03:28:32;;;;;;;10.33;4.00;;;8.70;9.90;;;;;;5105692;28;20189;-82
2023/05/24 03:30:58;;;;;;;11.23;3.97;;;8.70;13.90;;;;;;5083775;28;20192;-82
2023/05/24 03:33:24;;;;;;;7.93;3.50;;;8.70;27.10;;;;;;5084727;28;20185;-82
2023/05/24 03:35:49;;;;;;;16.70;4.20;;;8.70;46.90;;;;;;5092830;28;20215;-84
2023/05/24 03:38:15;;;;;;;11.00;4.07;;;8.70;49.20;;;;;;5100330;28;20274;-82
2023/05/24 03:40:41;;;;;;;13.97;4.30;;;8.70;78.40;;;;;;5084034;28;20195;-84
2023/05/24 03:43:06;;;;;;;13.67;4.90;;;8.70;98.50;;;;;;5108583;28;20194;-82
2023/05/24 03:45:32;;;;;;;13.37;3.70;;;8.70;94.60;;;;;;5096700;28;20216;-81
2023/05/24 03:47:57;;;;;;;20.03;4.27;;;8.70;85.80;;;;;;5105261;28;20176;-82
2023/05/24 03:50:23;;;;;;;12.33;4.10;;;8.80;83.40;;;;;;5103316;28;20184;-83
2023/05/24 03:52:49;;;;;;;15.07;4.20;;;8.80;82.20;;;;;;5105396;28;20279;-83
2023/05/24 03:55:15;;;;;;;11.07;4.15;;;8.80;74.10;;;;;;5080114;28;20215;-84
2023/05/24 03:57:41;;;;;;;14.50;4.30;;;8.90;56.90;;;;;;5074606;28;20200;-83
2023/05/24 04:00:08;;;;;;;10.70;3.38;;;8.90;70.80;;;;;;5103360;28;20204;-82
2023/05/24 04:02:36;;;;;;;12.05;4.68;;;9.00;44.90;;;;;;5100785;28;20219;-82
2023/05/24 04:05:03;;;;;;;14.25;3.10;;;9.00;24.80;;;;;;5096060;28;20192;-83
2023/05/24 04:07:32;;;;;;;11.00;3.60;;;9.10;16.10;;;;;;5088178;28;20200;-82
2023/05/24 04:09:58;;;;;;;12.10;3.95;;;9.10;10.30;;;;;;5088055;28;20177;-83
2023/05/24 04:12:23;;;;;;;10.97;3.97;;;9.20;1.00;;;;;;5097164;28;20191;-82
2023/05/24 04:14:50;;;;;;;13.80;4.30;;;9.20;1.00;;;;;;5104183;28;20204;-81
2023/05/24 04:17:17;;;;;;;16.85;4.22;;;9.30;1.00;;;;;;5106781;28;20236;-83
2023/05/24 04:19:42;;;;;;;12.70;4.20;;;9.40;1.00;;;;;;5080387;28;20598;-83
2023/05/24 04:22:08;;;;;;;14.97;4.40;;;9.40;1.00;;;;;;5087121;28;20464;-79
2023/05/24 04:24:33;;;;;;;17.13;4.50;;;9.50;1.00;;;;;;5102655;28;20189;-84
2023/05/24 04:26:59;;;;;;;9.70;3.37;;;9.60;1.00;;;;;;5106069;28;20183;-82
2023/05/24 04:29:25;;;;;;;12.10;4.10;;;9.70;1.00;;;;;;5078148;28;20247;-83
2023/05/24 04:31:51;;;;;;;13.70;5.23;;;9.80;1.00;;;;;;5097064;28;20206;-81
2023/05/24 04:34:17;;;;;;;11.43;4.77;;;9.90;1.00;;;;;;5101000;28;20469;-81
2023/05/24 04:36:42;;;;;;;13.03;4.00;;;9.90;1.00;;;;;;5102441;28;20172;-81
2023/05/24 04:39:08;;;;;;;9.00;3.80;;;10.10;1.00;;;;;;5097842;28;21068;-79
2023/05/24 04:41:37;;;;;;;10.13;4.00;;;10.10;1.00;;;;;;5105157;28;20177;-83
2023/05/24 04:44:03;;;;;;;17.60;3.93;;;10.20;1.00;;;;;;5096978;28;20233;-80
2023/05/24 04:46:28;;;;;;;19.97;5.10;;;10.30;1.00;;;;;;5089406;28;20442;-81
2023/05/24 04:48:54;;;;;;;14.00;5.60;;;10.30;1.00;;;;;;5103016;28;20203;-79
2023/05/24 04:51:25;;;;;;;15.00;4.30;;;10.40;1.00;;;;;;5102793;28;20180;-80
2023/05/24 04:53:51;;;;;;;15.43;4.73;;;10.50;1.00;;;;;;5087038;28;20214;-79
2023/05/24 04:56:18;;;;;;;15.60;6.00;;;10.60;1.00;;;;;;5100715;28;20461;-79
2023/05/24 04:58:43;;;;;;;14.00;5.03;;;10.70;1.00;;;;;;5084407;28;20695;-81
2023/05/24 05:01:09;;;;;;;14.17;5.30;;;10.90;1.00;;;;;;5102797;28;20465;-79
2023/05/24 05:03:34;;;;;;;16.90;5.30;;;10.90;1.00;;;;;;5105002;28;20176;-80
2023/05/24 05:06:00;;;;;;;11.93;4.50;;;11.00;1.00;;;;;;5104722;28;20231;-80
2023/05/24 05:08:26;;;;;;;15.97;5.03;;;11.10;1.00;;;;;;5083286;28;20181;-81
2023/05/24 05:10:51;;;;;;;9.57;5.10;;;11.20;1.00;;;;;;5088209;28;20180;-82
2023/05/24 05:13:17;;;;;;;13.40;4.97;;;11.30;1.00;;;;;;5090707;28;20248;-79
2023/05/24 05:15:43;;;;;;;24.43;5.40;;;11.40;1.00;;;;;;5082607;28;20258;-79
2023/05/24 05:18:09;;;;;;;11.40;5.30;;;11.60;1.00;;;;;;5088970;28;20263;-81
2023/05/24 05:20:34;;;;;;;16.10;5.33;;;11.60;1.00;;;;;;5086279;28;20449;-82
2023/05/24 05:23:00;;;;;;;21.80;5.57;;;11.70;1.00;;;;;;5101048;28;20184;-84
2023/05/24 05:25:25;;;;;;;19.53;6.60;;;12.00;1.00;;;;;;5106011;28;20204;-83
2023/05/24 05:27:51;;;;;;;18.10;4.80;;;12.30;99.90;;;;;;5086405;28;20187;-82
2023/05/24 05:30:16;;;;;;;7.97;3.80;;;12.50;99.90;;;;;;5105317;28;20203;-81
2023/05/24 05:32:42;;;;;;;21.70;5.77;;;12.70;99.90;;;;;;5102163;28;20263;-80
2023/05/24 05:35:08;;;;;;;16.20;5.37;;;12.90;99.90;;;;;;5097416;28;20266;-80
2023/05/24 05:37:33;;;;;;;13.10;5.27;;;13.20;99.90;;;;;;5102929;28;20188;-79
2023/05/24 05:39:59;;;;;;;14.93;6.27;;;13.40;99.90;;;;;;5105517;28;20419;-80
2023/05/24 05:42:25;;;;;;;9.90;4.60;;;13.60;99.90;;;;;;5093167;28;20215;-80
2023/05/24 05:44:51;;;;;;;11.50;4.87;;;13.70;99.90;;;;;;5102370;28;20188;-83
2023/05/24 05:47:16;;;;;;;14.70;5.17;;;13.70;99.90;;;;;;5099257;28;20174;-83
2023/05/24 05:49:42;;;;;;;17.17;4.97;;;14.00;99.90;;;;;;5085237;28;20435;-79
2023/05/24 05:52:08;;;;;;;17.20;5.60;;;14.10;99.90;;;;;;5088666;28;20667;-80
2023/05/24 05:54:33;;;;;;;22.13;5.70;;;14.10;99.90;;;;;;5095287;28;20212;-82
2023/05/24 05:56:59;;;;;;;19.20;6.77;;;14.10;99.90;;;;;;5076996;28;20189;-80
2023/05/24 05:59:25;;;;;;;19.60;7.10;;;14.10;99.90;;;;;;5098516;28;20225;-83
2023/05/24 06:01:51;;;;;;;20.60;7.50;;;14.20;99.90;;;;;;5087084;28;20190;-82
2023/05/24 06:04:16;;;;;;;17.23;5.97;;;14.20;99.90;;;;;;5106533;28;20204;-82
2023/05/24 06:06:48;;;;;;;16.17;5.10;;;16.30;99.90;;;;;;5106710;28;20409;-84
2023/05/24 06:09:16;;;;;;;15.70;4.20;;;17.10;99.90;;;;;;5078289;28;20275;-83
2023/05/24 06:11:43;;;;;;;15.43;4.77;;;19.40;99.90;;;;;;5082747;28;20864;-82
2023/05/24 06:14:11;;;;;;;12.20;3.90;;;20.70;99.90;;;;;;5105401;28;20439;-83
2023/05/24 06:16:42;;;;;;;13.40;4.60;;;23.80;99.90;;;;;;5087346;28;20447;-82
2023/05/24 06:34:23;;;;;;;25.93;5.70;;;23.60;99.90;;;;;;4970200;28;20456;-83
2023/05/24 06:44:29;;;;;;;15.53;5.73;;;23.00;99.90;;;;;;5074322;28;20431;-85
2023/05/24 06:47:13;;;;;;;;;;;;;;;;;;;;;
2023/05/24 06:50:29;;;;;;;;;;;;;;;;;;;;;
2023/05/24 06:53:29;;;;;;;14.63;5.47;;;30.10;99.90;;;;;;5096550;28;20517;-84
2023/05/24 06:55:57;;;;;;;15.50;5.10;;;34.00;99.90;;;;;;5097066;28;20907;-84
2023/05/24 07:01:31;;;;;;;15.60;6.37;;;38.40;99.90;;;;;;5070571;28;20442;-87
2023/05/24 07:04:11;;;;;;;19.33;5.23;;;37.90;99.90;;;;;;5081665;28;20450;-83
2023/05/24 07:09:47;;;;;;;17.07;4.70;;;32.00;99.90;;;;;;5060658;28;20477;-84
2023/05/24 07:12:16;;;;;;;18.23;6.10;;;29.00;99.30;;;;;;5104530;28;20434;-84
2023/05/24 07:14:54;;;;;;;;;;;;;;;;;;;;;
2023/05/24 07:23:19;;;;;;;18.57;4.83;;;34.70;99.90;;;;;;5102347;28;20441;-83
2023/05/24 07:26:23;;;;;;;15.90;4.97;;;33.00;98.10;;;;;;5100954;28;20481;-86
2023/05/24 07:28:54;;;;;;;13.90;4.50;;;31.60;94.30;;;;;;5078370;28;20470;-84
2023/05/24 07:31:38;;;;;;;;;;;;;;;;;;;;;
2023/05/24 07:34:21;;;;;;;;;;;;;;;;;;;;;
2023/05/24 07:36:50;;;;;;;10.40;4.63;;;28.00;80.40;;;;;;5098483;28;20541;-85
2023/05/24 07:39:28;;;;;;;;;;;;;;;;;;;;;
2023/05/24 07:42:29;;;;;;;18.50;5.13;;;26.30;73.30;;;;;;5093441;28;20497;-84
2023/05/24 07:45:21;;;;;;;15.43;4.40;;;25.40;70.30;;;;;;5081129;28;20459;-85
2023/05/24 07:47:46;;;;;;;20.43;5.23;;;25.00;70.90;;;;;;5099929;28;20438;-85
2023/05/24 07:50:12;;;;;;;16.70;4.20;;;26.50;80.80;;;;;;5103934;28;20457;-85
2023/05/24 07:52:37;;;;;;;15.00;5.77;;;26.60;80.40;;;;;;5084901;28;20232;-85
2023/05/24 07:55:06;;;;;;;18.73;4.73;;;26.40;79.00;;;;;;5086271;28;20218;-86
2023/05/24 07:57:58;;;;;;;14.03;4.97;;;31.70;96.50;;;;;;5101692;28;20172;-86
2023/05/24 08:00:58;;;;;;;15.57;5.03;;;35.70;99.00;;;;;;5074955;28;20419;-86
2023/05/24 08:03:46;;;;;;;15.17;5.27;;;38.90;99.60;;;;;;5089755;28;20537;-86
2023/05/24 08:09:16;;;;;;;14.17;4.60;;;39.70;94.40;;;;;;5077829;28;20466;-86
2023/05/24 08:12:07;;;;;;;14.33;6.30;;;37.50;82.70;;;;;;5102207;28;20795;-86
2023/05/24 08:14:33;;;;;;;12.80;4.63;;;34.00;69.20;;;;;;5094328;28;20457;-86
2023/05/24 08:17:11;;;;;;;15.50;4.70;;;34.50;74.40;;;;;;5101863;28;20436;-86
2023/05/24 08:19:54;;;;;;;14.57;5.23;;;34.50;71.20;;;;;;5086184;28;20191;-87
2023/05/24 08:22:20;;;;;;;22.63;5.30;;;32.10;58.40;;;;;;5103854;28;20513;-84
2023/05/24 08:24:48;;;;;;;14.10;4.50;;;30.00;53.60;;;;;;5103584;28;20454;-86
2023/05/24 08:27:29;;;;;;;13.10;4.47;;;30.80;58.80;;;;;;5103966;28;20424;-86
2023/05/24 08:44:21;;;;;;;;;;;;;;;;;;;;;
2023/05/24 08:46:55;;;;;;;14.70;4.90;;;33.20;51.00;;;;;;4999570;28;20541;-86
2023/05/24 08:49:39;;;;;;;18.03;5.00;;;31.10;46.10;;;;;;5080819;28;20480;-87
2023/05/24 08:52:18;;;;;;;;;;;;;;;;;;;;;
2023/05/24 08:54:50;;;;;;;12.80;4.87;;;27.80;38.30;;;;;;5101797;28;20536;-86
2023/05/24 08:57:56;;;;;;;14.80;4.40;;;26.70;36.50;;;;;;5082677;28;20442;-86
2023/05/24 09:00:22;;;;;;;16.20;5.57;;;25.80;35.10;;;;;;5086413;28;20432;-85
2023/05/24 09:02:52;;;;;;;14.77;4.10;;;25.00;34.60;;;;;;5098244;28;20448;-85
2023/05/24 09:08:57;;;;;;;;;;;;;;;;;;;;;
2023/05/24 09:11:24;;;;;;;11.47;4.90;;;23.40;33.10;;;;;;5092484;28;20529;-85
2023/05/24 09:13:52;;;;;;;15.40;4.50;;;23.10;32.90;;;;;;5086141;28;20433;-87
2023/05/24 09:16:21;;;;;;;13.40;4.83;;;23.00;33.60;;;;;;5097319;28;20462;-86
2023/05/24 09:18:48;;;;;;;12.90;4.43;;;22.90;35.80;;;;;;5103979;28;20449;-87
2023/05/24 09:21:24;;;;;;;12.77;4.37;;;23.00;37.10;;;;;;5082145;28;20480;-86
2023/05/24 09:23:55;;;;;;;16.10;5.17;;;23.10;39.50;;;;;;5083384;28;20501;-87
2023/05/24 09:26:21;;;;;;;15.13;4.53;;;23.10;40.40;;;;;;5102489;28;20477;-85
2023/05/24 09:28:53;;;;;;;10.20;5.07;;;23.00;40.80;;;;;;5103027;28;20482;-85
2023/05/24 09:31:30;;;;;;;16.40;5.43;;;22.90;42.20;;;;;;5093930;28;20179;-87
2023/05/24 09:33:55;;;;;;;11.67;5.27;;;22.70;42.00;;;;;;5079719;28;20445;-85
2023/05/24 09:36:21;;;;;;;18.83;5.60;;;22.70;42.60;;;;;;5097297;28;20458;-86
2023/05/24 09:38:47;;;;;;;12.27;4.67;;;22.60;43.90;;;;;;5094197;28;20237;-81
2023/05/24 09:41:12;;;;;;;10.77;4.60;;;22.70;45.30;;;;;;5093490;28;20191;-83
2023/05/24 09:43:48;;;;;;;10.77;5.70;;;22.80;46.80;;;;;;5079754;28;20446;-86
2023/05/24 09:46:18;;;;;;;9.10;4.47;;;23.00;48.20;;;;;;5096399;28;20212;-84
2023/05/24 09:48:58;;;;;;;12.40;4.33;;;23.40;50.60;;;;;;5095969;28;20470;-85
2023/05/24 09:51:24;;;;;;;10.60;4.70;;;23.60;51.50;;;;;;5086260;28;20449;-86
2023/05/24 09:53:51;;;;;;;12.63;4.63;;;24.20;54.60;;;;;;5098821;28;20412;-86
2023/05/24 09:56:18;;;;;;;12.30;5.20;;;25.00;57.10;;;;;;5094798;28;20454;-86
2023/05/24 09:58:44;;;;;;;13.10;4.80;;;25.90;59.20;;;;;;5103366;28;20434;-85
2023/05/24 10:01:12;;;;;;;12.97;4.83;;;26.90;64.80;;;;;;5075493;28;21460;-85
2023/05/24 10:03:38;;;;;;;15.20;5.40;;;28.00;70.00;;;;;;5101158;28;20425;-84
2023/05/24 10:06:06;;;;;;;14.77;4.50;;;28.10;69.40;;;;;;5102039;28;20460;-86
2023/05/24 10:08:35;;;;;;;13.83;5.30;;;28.60;69.90;;;;;;5085101;28;20249;-86
2023/05/24 10:11:04;;;;;;;13.70;4.87;;;28.40;85.80;;;;;;5102104;28;20464;-87
2023/05/24 10:13:34;;;;;;;11.10;4.43;;;28.00;64.90;;;;;;5099889;28;20430;-86
2023/05/24 10:16:00;;;;;;;13.80;5.27;;;27.40;61.60;;;;;;5098631;28;20530;-86
2023/05/24 10:18:25;;;;;;;16.10;9.10;;;26.70;57.30;;;;;;5103268;28;20434;-87
2023/05/24 10:20:54;;;;;;;13.13;4.07;;;25.90;55.30;;;;;;5101685;28;20196;-86
2023/05/24 10:23:21;;;;;;;14.40;4.70;;;25.10;52.20;;;;;;5099949;28;20212;-86
2023/05/24 10:25:54;;;;;;;15.43;4.80;;;24.40;50.40;;;;;;5102489;28;20948;-84
2023/05/24 10:28:22;;;;;;;14.67;4.90;;;23.70;47.90;;;;;;5098728;28;20458;-85
2023/05/24 10:31:13;;;;;;;12.00;4.90;;;23.00;46.60;;;;;;5066640;28;20448;-81
2023/05/24 10:33:43;;;;;;;17.43;5.23;;;22.40;45.70;;;;;;5100680;28;20514;-82
2023/05/24 10:36:11;;;;;;;13.00;5.33;;;21.90;44.80;;;;;;5093681;28;20893;-84
2023/05/24 10:38:39;;;;;;;12.27;5.47;;;21.60;44.30;;;;;;5082631;28;20435;-84
2023/05/24 10:41:06;;;;;;;16.97;5.80;;;21.20;44.40;;;;;;5097475;28;20555;-83
2023/05/24 10:43:34;;;;;;;14.03;5.90;;;20.90;44.40;;;;;;5099976;28;20429;-83
2023/05/24 10:46:02;;;;;;;14.20;5.70;;;20.70;44.40;;;;;;5094123;28;20475;-83
2023/05/24 10:48:28;;;;;;;13.73;5.13;;;20.60;46.90;;;;;;5100588;28;20462;-83
2023/05/24 10:50:53;;;;;;;12.43;5.20;;;20.50;47.60;;;;;;5093254;28;20430;-84
2023/05/24 10:53:21;;;;;;;11.87;5.30;;;20.40;47.30;;;;;;5097783;28;20180;-87
2023/05/24 10:56:00;;;;;;;14.10;5.20;;;20.40;48.20;;;;;;5098413;28;20192;-88
2023/05/24 10:58:43;;;;;;;19.43;5.87;;;20.40;50.00;;;;;;5094425;28;20445;-84
2023/05/24 11:01:13;;;;;;;16.43;5.20;;;20.50;51.20;;;;;;5095434;28;20441;-84
2023/05/24 11:03:40;;;;;;;19.10;6.13;;;20.50;52.30;;;;;;5098296;28;20430;-83
2023/05/24 11:06:06;;;;;;;16.27;6.13;;;20.70;54.10;;;;;;5092489;28;20451;-83
2023/05/24 11:08:36;;;;;;;12.60;5.30;;;21.00;55.50;;;;;;5080822;28;20838;-83
2023/05/24 11:11:10;;;;;;;13.10;4.80;;;21.90;59.60;;;;;;5105697;28;20964;-86
2023/05/24 11:13:37;;;;;;;8.47;4.60;;;23.90;71.50;;;;;;5097135;28;20430;-85
2023/05/24 11:16:03;;;;;;;11.13;4.90;;;25.60;78.30;;;;;;5102288;28;20462;-87
2023/05/24 11:18:28;;;;;;;11.30;5.00;;;26.60;82.20;;;;;;5100579;28;20418;-88
2023/05/24 11:20:56;;;;;;;15.60;5.20;;;27.00;81.00;;;;;;5091467;28;20180;-85
2023/05/24 11:23:22;;;;;;;11.30;4.53;;;27.10;80.30;;;;;;5089821;28;20399;-85
2023/05/24 11:25:48;;;;;;;13.47;4.77;;;27.70;81.50;;;;;;5078864;28;20462;-85
2023/05/24 11:28:13;;;;;;;8.40;3.83;;;28.50;82.40;;;;;;5099590;28;20458;-85
2023/05/24 11:30:46;;;;;;;10.80;4.30;;;29.00;81.80;;;;;;5093985;28;20965;-85
2023/05/24 11:33:17;;;;;;;10.10;4.47;;;29.00;79.00;;;;;;5094213;28;20187;-82
2023/05/24 11:35:43;;;;;;;6.90;4.13;;;29.40;79.00;;;;;;5080209;28;20438;-84
2023/05/24 11:38:14;;;;;;;11.97;4.60;;;30.40;81.50;;;;;;5099644;28;20854;-84
2023/05/24 11:40:44;;;;;;;10.43;4.53;;;31.60;83.80;;;;;;5098904;28;20450;-84
2023/05/24 11:43:15;;;;;;;9.23;3.90;;;32.80;86.50;;;;;;5097200;28;20415;-84
2023/05/24 11:45:42;;;;;;;9.53;4.50;;;34.00;88.00;;;;;;5091703;28;20481;-84
2023/05/24 11:48:09;;;;;;;8.70;4.47;;;34.40;85.70;;;;;;5076969;28;20972;-83
2023/05/24 11:50:42;;;;;;;13.93;4.27;;;34.50;81.10;;;;;;5094112;28;20863;-84
2023/05/24 11:53:11;;;;;;;23.97;5.90;;;33.40;71.30;;;;;;5095894;28;20813;-84
2023/05/24 11:55:39;;;;;;;10.83;4.77;;;33.20;68.00;;;;;;5096915;28;20933;-83
2023/05/24 11:58:10;;;;;;;8.17;4.50;;;32.50;62.80;;;;;;5081414;28;20582;-83
2023/05/24 12:01:34;;;;;;;7.97;3.90;;;31.80;58.30;;;;;;5099796;28;20523;-84
2023/05/24 12:04:02;;;;;;;10.47;3.63;;;31.00;54.50;;;;;;5030807;28;20445;-83
2023/05/24 12:06:39;;;;;;;7.97;3.83;;;30.80;54.20;;;;;;5034304;28;20567;-84
2023/05/24 12:09:12;;;;;;;11.03;3.90;;;31.50;54.20;;;;;;5045595;28;20474;-84
2023/05/24 12:11:45;;;;;;;8.00;3.03;;;31.40;54.00;;;;;;5094401;28;20438;-83
2023/05/24 12:14:44;;;;;;;10.47;3.10;;;30.90;50.90;;;;;;5097825;28;20426;-84
2023/05/24 12:17:15;;;;;;;7.13;3.20;;;31.20;51.40;;;;;;5067055;28;20487;-84
2023/05/24 12:19:42;;;;;;;5.87;2.57;;;30.80;49.70;;;;;;5097755;28;20929;-84
2023/05/24 12:22:08;;;;;;;6.20;3.10;;;30.40;47.50;;;;;;5096776;28;20434;-85
2023/05/24 12:24:34;;;;;;;7.10;3.47;;;30.00;45.60;;;;;;5075273;28;20477;-82
2023/05/24 12:27:06;;;;;;;8.13;3.00;;;29.50;43.80;;;;;;5072306;28;20243;-83
2023/05/24 12:29:35;;;;;;;6.07;2.77;;;29.10;43.00;;;;;;5076516;28;20525;-83
2023/05/24 12:32:01;;;;;;;6.70;2.80;;;28.60;40.70;;;;;;5090598;28;20437;-84
2023/05/24 12:34:27;;;;;;;4.70;2.57;;;28.00;40.40;;;;;;5097063;28;20450;-84
2023/05/24 12:36:54;;;;;;;6.37;3.10;;;27.40;50.90;;;;;;5096121;28;20780;-83
2023/05/24 12:39:32;;;;;;;11.07;3.73;;;26.70;36.10;;;;;;5075897;28;20283;-83
2023/05/24 12:42:00;;;;;;;31.23;4.83;;;26.10;34.30;;;;;;5093663;28;20430;-84
2023/05/24 12:44:28;;;;;;;7.67;3.37;;;25.50;32.20;;;;;;5075093;28;20468;-85
2023/05/24 12:46:55;;;;;;;13.50;3.30;;;25.00;31.30;;;;;;5088135;28;20449;-84
2023/05/24 12:49:24;;;;;;;7.53;2.97;;;24.60;30.50;;;;;;5078038;28;21251;-84
2023/05/24 12:51:53;;;;;;;8.37;2.97;;;24.30;31.10;;;;;;5096038;28;20440;-84
2023/05/24 12:54:22;;;;;;;9.50;3.67;;;24.00;30.50;;;;;;5097408;28;20442;-82
2023/05/24 12:56:48;;;;;;;6.80;3.10;;;23.70;31.00;;;;;;5097034;28;20423;-85
2023/05/24 12:59:14;;;;;;;10.77;3.57;;;23.40;30.40;;;;;;5095098;28;21087;-82
2023/05/24 13:01:45;;;;;;;11.40;3.80;;;23.20;29.50;;;;;;5083620;28;21043;-85
2023/05/24 13:04:11;;;;;;;9.60;3.43;;;23.00;29.20;;;;;;5072418;28;20219;-84
2023/05/24 13:06:37;;;;;;;7.27;3.67;;;22.80;30.30;;;;;;5073603;28;20436;-83
2023/05/24 13:09:03;;;;;;;13.37;4.37;;;22.70;30.60;;;;;;5096373;28;20205;-83
2023/05/24 13:11:30;;;;;;;5.77;3.23;;;22.60;31.30;;;;;;5095072;28;20194;-85
2023/05/24 13:13:56;;;;;;;7.67;3.20;;;22.60;32.50;;;;;;5078386;28;20425;-84
2023/05/24 13:16:22;;;;;;;9.70;3.30;;;22.50;33.70;;;;;;5089048;28;20584;-82
2023/05/24 13:18:49;;;;;;;10.50;3.50;;;22.50;34.30;;;;;;5076712;28;20435;-84
2023/05/24 13:21:15;;;;;;;7.30;3.37;;;22.40;34.70;;;;;;5096842;28;20417;-83
2023/05/24 13:23:42;;;;;;;8.17;3.73;;;22.50;35.60;;;;;;5089238;28;20966;-81
2023/05/24 13:26:08;;;;;;;8.03;3.63;;;22.60;36.60;;;;;;5097276;28;20712;-83
2023/05/24 13:28:36;;;;;;;11.90;3.90;;;22.90;39.20;;;;;;5097647;28;20465;-83
2023/05/24 13:31:02;;;;;;;8.40;4.13;;;23.10;39.70;;;;;;5067547;28;20181;-82
2023/05/24 13:33:28;;;;;;;9.73;3.60;;;23.30;40.00;;;;;;5096313;28;20442;-83
2023/05/24 13:35:56;;;;;;;9.67;4.10;;;23.50;41.80;;;;;;5079730;28;20494;-83
2023/05/24 13:38:22;;;;;;;8.30;3.83;;;23.60;43.60;;;;;;5095323;28;20254;-82
2023/05/24 13:40:48;;;;;;;12.00;3.30;;;23.80;44.20;;;;;;5095284;28;20445;-80
2023/05/24 13:43:14;;;;;;;7.70;3.10;;;24.10;45.90;;;;;;5099466;28;20426;-81
2023/05/24 13:45:39;;;;;;;9.97;3.80;;;24.20;46.60;;;;;;5097968;28;20452;-82
2023/05/24 13:48:05;;;;;;;10.97;3.77;;;24.20;46.80;;;;;;5101110;28;20686;-83
2023/05/24 13:50:32;;;;;;;10.80;4.07;;;24.30;47.10;;;;;;5099945;28;20171;-83
2023/05/24 13:53:00;;;;;;;8.20;3.00;;;24.20;47.80;;;;;;5100745;28;20732;-81
2023/05/24 13:55:27;;;;;;;8.37;3.43;;;24.00;47.30;;;;;;5096035;28;20446;-82
2023/05/24 13:57:54;;;;;;;11.87;3.90;;;24.10;47.70;;;;;;5102491;28;20415;-84
2023/05/24 14:00:20;;;;;;;12.10;4.27;;;24.30;47.90;;;;;;5076739;28;20430;-83
2023/05/24 14:02:46;;;;;;;9.43;3.80;;;24.60;49.40;;;;;;5098639;28;20425;-84
2023/05/24 14:05:12;;;;;;;6.20;3.53;;;24.70;49.60;;;;;;5097147;28;20576;-82